createdAt,value
2017-12-28T00:02:21.758Z,77.60
2017-12-28T00:04:50.073Z,77.60
2017-12-28T00:07:18.394Z,77.40
2017-12-28T00:09:45.989Z,77.50
2017-12-28T00:12:13.525Z,77.40
2017-12-28T00:14:41.040Z,77.10
2017-12-28T00:17:09.488Z,76.10
2017-12-28T00:19:37.044Z,76.20
2017-12-28T00:22:04.646Z,76.00
2017-12-28T00:24:32.960Z,75.70
2017-12-28T00:27:00.490Z,75.70
2017-12-28T00:29:28.047Z,75.30
2017-12-28T00:31:56.318Z,74.60
2017-12-28T00:34:24.637Z,74.60
2017-12-28T00:36:52.964Z,74.70
2017-12-28T00:39:20.544Z,74.70
2017-12-28T00:41:48.085Z,74.80
2017-12-28T00:44:15.636Z,75.00
2017-12-28T00:46:43.962Z,75.00
2017-12-28T00:49:11.476Z,75.00
2017-12-28T00:51:39.042Z,75.40
2017-12-28T00:54:06.615Z,75.80
2017-12-28T00:56:34.290Z,75.80
2017-12-28T00:59:02.574Z,75.80
2017-12-28T01:01:30.891Z,75.90
2017-12-28T01:03:59.209Z,76.10
2017-12-28T01:06:27.503Z,76.10
2017-12-28T01:08:55.047Z,76.10
2017-12-28T01:11:22.676Z,75.90
2017-12-28T01:13:50.223Z,75.70
2017-12-28T01:16:17.799Z,75.60
2017-12-28T01:18:46.102Z,75.80
2017-12-28T01:21:14.380Z,75.60
2017-12-28T01:23:41.901Z,75.80
2017-12-28T01:26:09.451Z,76.00
2017-12-28T01:28:36.983Z,75.90
2017-12-28T01:31:04.522Z,76.20
2017-12-28T01:33:32.080Z,76.00
2017-12-28T01:35:59.605Z,75.70
2017-12-28T01:38:27.149Z,75.60
2017-12-28T01:40:54.660Z,75.10
2017-12-28T01:43:23.009Z,75.20
2017-12-28T01:45:50.542Z,75.20
2017-12-28T01:48:18.081Z,75.10
2017-12-28T01:50:45.609Z,75.20
2017-12-28T01:53:13.157Z,75.20
2017-12-28T01:55:40.745Z,75.00
2017-12-28T01:58:08.326Z,75.20
2017-12-28T02:00:35.848Z,75.00
2017-12-28T02:03:03.386Z,75.00
2017-12-28T02:05:30.976Z,74.90
2017-12-28T02:07:58.516Z,74.80
2017-12-28T02:10:26.157Z,74.90
2017-12-28T02:12:54.443Z,74.70
2017-12-28T02:15:22.081Z,74.70
2017-12-28T02:17:49.621Z,74.50
2017-12-28T02:20:17.173Z,74.40
2017-12-28T02:22:44.713Z,74.40
2017-12-28T02:25:12.242Z,74.60
2017-12-28T02:27:40.539Z,74.50
2017-12-28T02:30:08.048Z,74.60
2017-12-28T02:32:35.582Z,74.40
2017-12-28T02:35:03.093Z,74.40
2017-12-28T02:37:30.595Z,74.40
2017-12-28T02:39:58.140Z,74.20
2017-12-28T02:42:25.670Z,74.00
2017-12-28T02:44:53.211Z,74.10
2017-12-28T02:47:20.869Z,74.00
2017-12-28T02:49:48.383Z,74.00
2017-12-28T02:52:15.944Z,73.70
2017-12-28T02:54:44.240Z,74.00
2017-12-28T02:57:11.766Z,74.00
2017-12-28T02:59:40.052Z,74.00
2017-12-28T03:02:07.658Z,74.00
2017-12-28T03:04:35.188Z,73.60
2017-12-28T03:07:02.918Z,73.70
2017-12-28T03:09:30.567Z,73.60
2017-12-28T03:11:58.883Z,73.60
2017-12-28T03:14:27.165Z,73.50
2017-12-28T03:16:55.489Z,73.40
2017-12-28T03:19:23.032Z,73.40
2017-12-28T03:21:50.556Z,73.50
2017-12-28T03:24:18.081Z,73.70
2017-12-28T03:26:45.664Z,73.50
2017-12-28T03:29:13.946Z,73.30
2017-12-28T03:31:41.458Z,73.30
2017-12-28T03:34:09.757Z,73.30
2017-12-28T03:36:37.279Z,73.30
2017-12-28T03:39:04.851Z,73.50
2017-12-28T03:41:32.401Z,73.30
2017-12-28T03:44:00.036Z,73.20
2017-12-28T03:46:27.586Z,72.90
2017-12-28T03:48:55.886Z,72.90
2017-12-28T03:51:23.409Z,72.90
2017-12-28T03:53:50.989Z,72.70
2017-12-28T03:56:18.525Z,72.70
2017-12-28T03:58:46.088Z,72.20
2017-12-28T04:01:14.376Z,73.00
2017-12-28T04:03:41.895Z,73.00
2017-12-28T04:06:10.216Z,72.90
2017-12-28T04:08:37.737Z,73.10
2017-12-28T04:11:05.434Z,73.40
2017-12-28T04:13:33.070Z,72.60
2017-12-28T04:16:00.597Z,72.90
2017-12-28T04:18:28.179Z,72.50
2017-12-28T04:20:55.723Z,72.30
2017-12-28T04:23:23.281Z,72.30
2017-12-28T04:25:50.989Z,71.70
2017-12-28T04:28:18.562Z,72.00
2017-12-28T04:30:46.858Z,71.70
2017-12-28T04:33:14.397Z,71.80
2017-12-28T04:35:42.057Z,71.30
2017-12-28T04:38:10.358Z,71.50
2017-12-28T04:40:37.873Z,71.40
2017-12-28T04:43:06.200Z,71.30
2017-12-28T04:45:33.711Z,71.30
2017-12-28T04:48:01.256Z,71.50
2017-12-28T04:50:28.778Z,72.00
2017-12-28T04:52:56.316Z,72.10
2017-12-28T04:55:23.835Z,72.40
2017-12-28T04:57:52.186Z,72.40
2017-12-28T05:00:19.733Z,72.40
2017-12-28T05:02:48.085Z,72.70
2017-12-28T05:05:15.623Z,72.70
2017-12-28T05:07:43.142Z,72.80
2017-12-28T05:10:10.695Z,73.30
2017-12-28T05:12:38.257Z,73.60
2017-12-28T05:15:05.948Z,73.80
2017-12-28T05:17:33.484Z,74.40
2017-12-28T05:20:01.009Z,74.80
2017-12-28T05:22:29.312Z,74.80
2017-12-28T05:24:56.858Z,74.80
2017-12-28T05:27:24.370Z,75.00
2017-12-28T05:29:52.697Z,75.30
2017-12-28T05:32:21.323Z,75.30
2017-12-28T05:34:49.630Z,75.10
2017-12-28T05:37:17.233Z,75.20
2017-12-28T05:39:44.801Z,74.90
2017-12-28T05:42:12.331Z,75.10
2017-12-28T05:44:39.843Z,75.00
2017-12-28T05:47:07.409Z,75.10
2017-12-28T05:49:35.732Z,75.30
2017-12-28T05:52:03.281Z,75.30
2017-12-28T05:54:30.843Z,75.50
2017-12-28T05:56:58.357Z,75.60
2017-12-28T05:59:25.918Z,75.60
2017-12-28T06:01:53.517Z,75.30
2017-12-28T06:04:21.069Z,75.10
2017-12-28T06:06:48.614Z,75.20
2017-12-28T06:09:16.224Z,75.20
2017-12-28T06:11:44.630Z,75.10
2017-12-28T06:14:12.911Z,75.20
2017-12-28T06:16:40.453Z,75.20
2017-12-28T06:19:08.020Z,74.90
2017-12-28T06:21:36.306Z,74.70
2017-12-28T06:24:03.949Z,74.90
2017-12-28T06:26:31.473Z,75.10
2017-12-28T06:28:58.995Z,75.00
2017-12-28T06:31:26.537Z,75.10
2017-12-28T06:33:55.184Z,75.50
2017-12-28T06:36:22.760Z,75.50
2017-12-28T06:38:50.499Z,75.60
2017-12-28T06:41:18.879Z,75.30
2017-12-28T06:43:46.433Z,75.30
2017-12-28T06:46:13.964Z,75.30
2017-12-28T06:48:41.530Z,75.30
2017-12-28T06:51:09.068Z,75.30
2017-12-28T06:53:36.645Z,75.20
2017-12-28T06:56:04.946Z,75.40
2017-12-28T06:58:32.505Z,75.30
2017-12-28T07:01:00.111Z,75.60
2017-12-28T07:03:27.681Z,75.10
2017-12-28T07:05:56.116Z,75.90
2017-12-28T07:08:23.820Z,75.90
2017-12-28T07:10:51.333Z,75.40
2017-12-28T07:13:18.866Z,75.50
2017-12-28T07:15:46.429Z,75.50
2017-12-28T07:18:14.781Z,75.90
2017-12-28T07:20:43.091Z,75.90
2017-12-28T07:23:10.635Z,75.80
2017-12-28T07:25:38.189Z,75.90
2017-12-28T07:28:06.812Z,75.70
2017-12-28T07:30:34.438Z,75.60
2017-12-28T07:33:02.065Z,75.70
2017-12-28T07:35:29.586Z,75.40
2017-12-28T07:37:57.166Z,75.60
2017-12-28T07:40:24.712Z,76.50
2017-12-28T07:42:52.435Z,76.00
2017-12-28T07:45:20.009Z,76.20
2017-12-28T07:47:47.564Z,76.00
2017-12-28T07:50:15.121Z,76.20
2017-12-28T07:52:43.528Z,75.60
2017-12-28T07:55:11.847Z,75.60
2017-12-28T07:57:39.406Z,75.60
2017-12-28T08:00:07.851Z,75.80
2017-12-28T08:02:36.301Z,75.50
2017-12-28T08:05:03.820Z,75.60
2017-12-28T08:07:31.391Z,75.90
2017-12-28T08:09:58.971Z,75.90
2017-12-28T08:12:26.622Z,76.00
2017-12-28T08:14:54.771Z,76.20
2017-12-28T08:17:23.082Z,75.70
2017-12-28T08:19:50.616Z,75.80
2017-12-28T08:22:18.145Z,75.60
2017-12-28T08:24:46.527Z,75.40
2017-12-28T08:27:14.135Z,75.50
2017-12-28T08:29:41.753Z,76.00
2017-12-28T08:32:09.285Z,75.60
2017-12-28T08:34:36.923Z,75.30
2017-12-28T08:37:04.486Z,75.30
2017-12-28T08:39:32.031Z,75.70
2017-12-28T08:41:59.571Z,75.80
2017-12-28T08:44:27.879Z,75.90
2017-12-28T08:46:55.399Z,75.90
2017-12-28T08:49:22.998Z,75.90
2017-12-28T08:51:50.580Z,75.80
2017-12-28T08:54:18.222Z,75.60
2017-12-28T08:56:45.761Z,76.10
2017-12-28T08:59:14.058Z,75.50
2017-12-28T09:01:41.776Z,75.60
2017-12-28T09:04:09.322Z,75.20
2017-12-28T09:06:37.709Z,74.90
2017-12-28T09:09:05.256Z,74.90
2017-12-28T09:11:32.817Z,75.30
2017-12-28T09:14:00.369Z,75.20
2017-12-28T09:16:27.904Z,75.30
2017-12-28T09:18:55.537Z,75.30
2017-12-28T09:21:23.095Z,74.90
2017-12-28T09:23:50.744Z,74.80
2017-12-28T09:26:19.268Z,74.50
2017-12-28T09:28:46.841Z,74.50
2017-12-28T09:31:15.134Z,75.50
2017-12-28T09:33:42.722Z,75.30
2017-12-28T09:36:11.054Z,74.90
2017-12-28T09:38:38.603Z,75.00
2017-12-28T09:41:06.233Z,75.40
2017-12-28T09:43:33.868Z,75.50
2017-12-28T09:46:01.429Z,75.80
2017-12-28T09:48:28.952Z,75.40
2017-12-28T09:50:56.514Z,75.50
2017-12-28T09:53:24.035Z,75.80
2017-12-28T09:55:52.402Z,76.60
2017-12-28T09:58:19.939Z,76.60
2017-12-28T10:00:47.488Z,76.10
2017-12-28T10:03:15.091Z,76.20
2017-12-28T10:05:42.645Z,76.40
2017-12-28T10:08:10.201Z,76.20
2017-12-28T10:10:37.729Z,76.40
2017-12-28T10:13:06.064Z,77.10
2017-12-28T10:15:33.607Z,77.10
2017-12-28T10:18:01.148Z,77.20
2017-12-28T10:20:28.690Z,77.80
2017-12-28T10:22:56.207Z,78.30
2017-12-28T10:25:23.760Z,78.10
2017-12-28T10:27:52.117Z,78.40
2017-12-28T10:30:20.492Z,77.80
2017-12-28T10:32:48.123Z,77.80
2017-12-28T10:35:15.685Z,78.50
2017-12-28T10:37:44.001Z,79.00
2017-12-28T10:40:11.539Z,79.00
2017-12-28T10:42:39.069Z,78.90
2017-12-28T10:45:07.490Z,78.50
2017-12-28T10:47:35.018Z,78.50
2017-12-28T10:50:03.319Z,79.00
2017-12-28T10:52:30.855Z,79.10
2017-12-28T10:54:58.445Z,78.80
2017-12-28T10:57:25.970Z,78.60
2017-12-28T10:59:53.551Z,78.50
2017-12-28T11:02:21.071Z,78.30
2017-12-28T11:04:48.657Z,78.10
2017-12-28T11:07:16.925Z,78.30
2017-12-28T11:09:44.507Z,78.30
2017-12-28T11:12:12.164Z,77.80
2017-12-28T11:14:39.760Z,77.70
2017-12-28T11:17:07.353Z,78.00
2017-12-28T11:19:35.694Z,77.90
2017-12-28T11:22:04.027Z,77.80
2017-12-28T11:24:31.861Z,77.80
2017-12-28T11:26:59.468Z,77.80
2017-12-28T11:29:27.023Z,78.10
2017-12-28T11:31:54.598Z,78.50
2017-12-28T11:34:22.136Z,78.30
2017-12-28T11:36:49.692Z,77.90
2017-12-28T11:39:18.006Z,79.00
2017-12-28T11:41:45.566Z,79.10
2017-12-28T11:44:13.185Z,78.90
2017-12-28T11:46:40.757Z,78.80
2017-12-28T11:49:08.383Z,78.70
2017-12-28T11:51:42.180Z,77.80
2017-12-28T11:54:09.979Z,77.80
2017-12-28T11:56:39.301Z,77.80
2017-12-28T11:59:12.486Z,77.60
2017-12-28T12:04:44.023Z,78.00
2017-12-28T12:07:12.383Z,77.30
2017-12-28T12:09:46.253Z,77.40
2017-12-28T12:12:14.564Z,77.00
2017-12-28T12:14:42.848Z,77.20
2017-12-28T12:17:11.202Z,77.80
2017-12-28T12:19:38.829Z,77.70
2017-12-28T12:22:06.518Z,78.30
2017-12-28T12:24:34.071Z,77.80
2017-12-28T12:27:01.819Z,77.40
2017-12-28T12:29:29.395Z,76.90
2017-12-28T12:31:57.012Z,77.50
2017-12-28T12:34:24.582Z,77.80
2017-12-28T12:36:52.127Z,77.70
2017-12-28T12:39:19.685Z,77.30
2017-12-28T12:41:47.265Z,77.40
2017-12-28T12:44:15.577Z,77.90
2017-12-28T12:46:43.906Z,77.60
2017-12-28T12:49:11.529Z,77.60
2017-12-28T12:51:39.820Z,77.20
2017-12-28T12:54:07.465Z,77.20
2017-12-28T12:56:35.778Z,78.20
2017-12-28T12:59:03.337Z,78.30
2017-12-28T13:01:30.877Z,78.50
2017-12-28T13:03:58.410Z,77.90
2017-12-28T13:06:26.753Z,77.80
2017-12-28T13:08:54.390Z,77.80
2017-12-28T13:11:21.955Z,77.90
2017-12-28T13:13:49.523Z,78.00
2017-12-28T13:16:17.100Z,78.00
2017-12-28T13:18:45.461Z,78.00
2017-12-28T13:21:13.001Z,78.00
2017-12-28T13:23:40.533Z,78.00
2017-12-28T13:26:08.115Z,78.30
2017-12-28T13:28:35.681Z,78.90
2017-12-28T13:31:03.284Z,78.80
2017-12-28T13:33:30.936Z,78.50
2017-12-28T13:35:58.610Z,78.20
2017-12-28T13:38:26.938Z,78.40
2017-12-28T13:40:54.489Z,78.40
2017-12-28T13:43:22.026Z,78.10
2017-12-28T13:45:49.586Z,78.00
2017-12-28T13:48:17.189Z,77.50
2017-12-28T13:50:44.744Z,77.80
2017-12-28T13:53:12.299Z,77.90
2017-12-28T13:55:40.627Z,77.20
2017-12-28T13:58:08.229Z,77.20
2017-12-28T14:00:35.881Z,77.00
2017-12-28T14:03:03.571Z,77.10
2017-12-28T14:05:31.121Z,76.80
2017-12-28T14:07:58.666Z,76.70
2017-12-28T14:10:26.223Z,76.80
2017-12-28T14:12:54.764Z,76.90
2017-12-28T14:15:23.128Z,76.90
2017-12-28T14:17:51.452Z,76.30
2017-12-28T14:20:19.002Z,76.30
2017-12-28T14:22:46.562Z,76.70
2017-12-28T14:25:14.096Z,76.40
2017-12-28T14:27:41.654Z,76.60
2017-12-28T14:30:09.177Z,76.70
2017-12-28T14:32:36.772Z,76.70
2017-12-28T14:35:04.406Z,77.00
2017-12-28T14:37:32.734Z,76.50
2017-12-28T14:40:00.360Z,76.50
2017-12-28T14:42:27.949Z,76.40
2017-12-28T14:44:55.478Z,75.90
2017-12-28T14:47:23.040Z,76.50
2017-12-28T14:49:50.586Z,76.70
2017-12-28T14:52:19.088Z,78.30
2017-12-28T14:54:46.637Z,77.70
2017-12-28T14:57:14.194Z,78.00
2017-12-28T14:59:41.732Z,77.80
2017-12-28T15:02:10.150Z,77.40
2017-12-28T15:04:38.712Z,77.40
2017-12-28T15:07:06.284Z,77.70
2017-12-28T15:09:33.835Z,77.70
2017-12-28T15:12:01.456Z,77.90
2017-12-28T15:14:28.992Z,77.80
2017-12-28T15:16:56.659Z,77.70
2017-12-28T15:19:24.354Z,77.60
2017-12-28T15:21:52.653Z,77.10
2017-12-28T15:24:20.228Z,77.10
2017-12-28T15:26:47.745Z,76.90
2017-12-28T15:29:15.370Z,77.20
2017-12-28T15:31:43.897Z,77.10
2017-12-28T15:34:11.431Z,77.10
2017-12-28T15:36:39.711Z,77.20
2017-12-28T15:39:07.426Z,77.10
2017-12-28T15:41:34.960Z,76.80
2017-12-28T15:44:02.510Z,76.60
2017-12-28T15:46:30.033Z,77.00
2017-12-28T15:48:57.680Z,77.40
2017-12-28T15:51:25.197Z,77.10
2017-12-28T15:53:52.762Z,77.60
2017-12-28T15:56:20.306Z,77.40
2017-12-28T15:58:47.855Z,77.60
2017-12-28T16:01:16.192Z,77.50
2017-12-28T16:03:43.740Z,77.50
2017-12-28T16:06:11.293Z,77.70
2017-12-28T16:08:39.595Z,78.10
2017-12-28T16:11:07.208Z,78.00
2017-12-28T16:13:34.726Z,77.70
2017-12-28T16:16:03.059Z,78.00
2017-12-28T16:18:30.627Z,78.00
2017-12-28T16:20:58.904Z,77.30
2017-12-28T16:23:26.450Z,78.00
2017-12-28T16:25:54.014Z,77.20
2017-12-28T16:28:21.545Z,77.60
2017-12-28T16:30:49.304Z,77.70
2017-12-28T16:33:16.868Z,77.80
2017-12-28T16:35:44.433Z,77.40
2017-12-28T16:38:11.991Z,76.50
2017-12-28T16:40:39.588Z,76.50
2017-12-28T16:43:07.193Z,76.90
2017-12-28T16:45:34.729Z,76.40
2017-12-28T16:48:03.117Z,76.40
2017-12-28T16:50:30.721Z,76.40
2017-12-28T16:52:58.264Z,76.00
2017-12-28T16:55:25.836Z,76.20
2017-12-28T16:57:53.412Z,76.20
2017-12-28T17:00:20.954Z,76.60
2017-12-28T17:02:49.505Z,76.80
2017-12-28T17:05:17.267Z,77.00
2017-12-28T17:07:45.017Z,76.70
2017-12-28T17:10:12.608Z,76.30
2017-12-28T17:12:40.297Z,75.90
2017-12-28T17:15:08.596Z,75.90
2017-12-28T17:17:37.080Z,75.40
2017-12-28T17:20:05.419Z,75.40
2017-12-28T17:22:33.009Z,75.40
2017-12-28T17:25:01.809Z,75.50
2017-12-28T17:27:29.560Z,75.70
2017-12-28T17:29:57.925Z,75.20
2017-12-28T17:32:25.459Z,75.20
2017-12-28T17:34:53.013Z,75.10
2017-12-28T17:37:20.673Z,75.00
2017-12-28T17:39:48.258Z,75.20
2017-12-28T17:42:15.827Z,74.80
2017-12-28T17:44:44.129Z,75.20
2017-12-28T17:47:11.756Z,74.90
2017-12-28T17:49:39.364Z,75.30
2017-12-28T17:52:07.052Z,75.40
2017-12-28T17:54:35.387Z,75.60
2017-12-28T17:57:02.952Z,75.60
2017-12-28T17:59:30.509Z,76.00
2017-12-28T18:01:58.076Z,75.70
2017-12-28T18:04:25.753Z,76.00
2017-12-28T18:06:53.311Z,75.40
2017-12-28T18:09:20.912Z,75.50
2017-12-28T18:11:49.208Z,75.30
2017-12-28T18:14:16.909Z,75.40
2017-12-28T18:16:44.485Z,75.20
2017-12-28T18:19:12.161Z,75.00
2017-12-28T18:21:39.742Z,75.00
2017-12-28T18:24:08.109Z,75.30
2017-12-28T18:26:35.792Z,75.30
2017-12-28T18:29:03.353Z,74.60
2017-12-28T18:31:30.884Z,74.40
2017-12-28T18:33:59.433Z,75.30
2017-12-28T18:36:27.066Z,75.30
2017-12-28T18:38:54.641Z,75.30
2017-12-28T18:41:22.274Z,75.70
2017-12-28T18:43:49.929Z,76.10
2017-12-28T18:46:18.389Z,76.10
2017-12-28T18:48:46.867Z,76.40
2017-12-28T18:51:15.176Z,76.30
2017-12-28T18:53:43.675Z,76.40
2017-12-28T18:56:11.215Z,76.70
2017-12-28T18:58:38.746Z,77.00
2017-12-28T19:01:07.089Z,76.90
2017-12-28T19:03:35.433Z,77.00
2017-12-28T19:06:03.127Z,77.00
2017-12-28T19:08:30.683Z,76.90
2017-12-28T19:10:59.078Z,77.60
2017-12-28T19:13:26.674Z,77.70
2017-12-28T19:15:54.512Z,77.60
2017-12-28T19:18:22.847Z,77.50
2017-12-28T19:20:50.465Z,77.50
2017-12-28T19:23:18.877Z,77.80
2017-12-28T19:25:46.699Z,77.80
2017-12-28T19:28:15.040Z,78.20
2017-12-28T19:30:42.601Z,78.20
2017-12-28T19:33:10.212Z,77.60
2017-12-28T19:35:37.790Z,77.80
2017-12-28T19:38:05.408Z,77.80
2017-12-28T19:40:34.035Z,77.80
2017-12-28T19:43:01.545Z,77.80
2017-12-28T19:45:29.875Z,77.40
2017-12-28T19:47:58.168Z,76.90
2017-12-28T19:50:26.505Z,77.30
2017-12-28T19:52:54.103Z,77.30
2017-12-28T19:55:21.779Z,77.60
2017-12-28T19:57:49.383Z,77.40
2017-12-28T20:00:17.697Z,76.90
2017-12-28T20:02:45.246Z,76.80
2017-12-28T20:05:12.821Z,77.30
2017-12-28T20:07:40.358Z,77.30
2017-12-28T20:10:08.012Z,77.00
2017-12-28T20:12:35.774Z,77.40
2017-12-28T20:15:03.312Z,77.10
2017-12-28T20:17:30.893Z,77.50
2017-12-28T20:19:58.446Z,77.60
2017-12-28T20:22:26.140Z,77.40
2017-12-28T20:24:53.691Z,77.50
2017-12-28T20:27:21.336Z,77.30
2017-12-28T20:29:48.858Z,76.70
2017-12-28T20:32:16.380Z,76.90
2017-12-28T20:34:44.729Z,76.90
2017-12-28T20:37:13.063Z,76.80
2017-12-28T20:39:41.398Z,76.80
2017-12-28T20:42:09.004Z,76.80
2017-12-28T20:44:36.549Z,76.80
2017-12-28T20:47:04.863Z,76.50
2017-12-28T20:49:32.430Z,76.50
2017-12-28T20:52:00.716Z,77.10
2017-12-28T20:54:28.255Z,76.90
2017-12-28T20:56:55.793Z,76.60
2017-12-28T20:59:23.484Z,76.60
2017-12-28T21:01:51.006Z,76.20
2017-12-28T21:04:18.704Z,76.60
2017-12-28T21:06:46.256Z,76.60
2017-12-28T21:09:13.801Z,76.50
2017-12-28T21:11:41.351Z,76.70
2017-12-28T21:14:08.886Z,76.30
2017-12-28T21:16:37.219Z,74.70
2017-12-28T21:19:04.778Z,74.70
2017-12-28T21:21:32.344Z,74.50
2017-12-28T21:24:01.468Z,74.20
2017-12-28T21:26:29.765Z,73.30
2017-12-28T21:28:57.317Z,73.30
2017-12-28T21:31:25.634Z,73.80
2017-12-28T21:33:53.216Z,73.80
2017-12-28T21:36:20.779Z,73.80
2017-12-28T21:38:48.419Z,73.60
2017-12-28T21:41:16.897Z,73.90
2017-12-28T21:43:44.465Z,73.90
2017-12-28T21:46:11.983Z,73.50
2017-12-28T21:48:39.539Z,73.60
2017-12-28T21:51:07.076Z,73.00
2017-12-28T21:53:35.549Z,73.80
2017-12-28T21:56:03.833Z,73.60
2017-12-28T21:58:32.141Z,73.50
2017-12-28T22:00:59.666Z,73.40
2017-12-28T22:03:28.030Z,73.70
2017-12-28T22:05:56.317Z,73.30
2017-12-28T22:08:24.633Z,73.00
2017-12-28T22:10:52.175Z,73.00
2017-12-28T22:13:19.714Z,73.10
2017-12-28T22:15:48.036Z,73.00
2017-12-28T22:18:15.599Z,73.00
2017-12-28T22:20:43.336Z,72.80
2017-12-28T22:23:10.875Z,72.70
2017-12-28T22:25:38.427Z,73.10
2017-12-28T22:28:06.743Z,72.50
2017-12-28T22:30:34.287Z,72.50
2017-12-28T22:33:01.817Z,72.40
2017-12-28T22:35:30.120Z,73.10
2017-12-28T22:37:57.664Z,73.10
2017-12-28T22:40:25.202Z,72.60
2017-12-28T22:42:53.504Z,73.20
2017-12-28T22:45:21.030Z,73.20
2017-12-28T22:47:49.321Z,73.90
2017-12-28T22:50:17.021Z,73.90
2017-12-28T22:52:44.540Z,73.50
2017-12-28T22:55:12.085Z,73.10
2017-12-28T22:57:40.361Z,71.90
2017-12-28T23:00:08.795Z,71.90
2017-12-28T23:02:37.318Z,71.90
2017-12-28T23:05:05.624Z,72.00
2017-12-28T23:07:33.212Z,72.00
2017-12-28T23:10:00.739Z,71.50
2017-12-28T23:12:28.299Z,71.70
2017-12-28T23:14:55.897Z,72.30
2017-12-28T23:17:23.430Z,72.30
2017-12-28T23:19:50.957Z,72.50
2017-12-28T23:22:18.467Z,72.20
2017-12-28T23:24:46.025Z,72.20
2017-12-28T23:27:13.623Z,71.80
2017-12-28T23:29:41.909Z,71.50
2017-12-28T23:32:09.459Z,71.40
2017-12-28T23:34:37.742Z,71.50
2017-12-28T23:37:06.031Z,72.10
2017-12-28T23:39:33.589Z,72.10
2017-12-28T23:42:01.110Z,71.50
2017-12-28T23:44:29.438Z,71.50
2017-12-28T23:46:56.959Z,71.50
2017-12-28T23:49:25.271Z,70.90
2017-12-28T23:51:52.777Z,70.80
2017-12-28T23:54:21.100Z,70.30
2017-12-28T23:56:48.639Z,70.80
2017-12-28T23:59:16.215Z,70.70
